Time;durP1;ratioP1;P1;durP2;ratioP2;P2;SDS_P1;SDS_P2;PMS_P1;PMS_P2;Temp;Humidity;BMP_temperature;BMP_pressure;BME280_temperature;BME280_humidity;BME280_pressure;Samples;Min_cycle;Max_cycle;Signal;HPM_P1;HPM_P2
2022/01/25 00:10:26;;;;;;;24.52;18.90;;;;;;;;;;5028217;28;20368;-59
2022/01/25 00:24:12;;;;;;;27.20;19.42;;;;;;;;;;5032250;28;20040;-60
2022/01/25 00:26:31;;;;;;;24.77;18.17;;;;;;;;;;5029511;28;20052;-59
2022/01/25 00:29:10;;;;;;;23.38;18.45;;;;;;;;;;5030424;28;20024;-60
2022/01/25 00:31:37;;;;;;;23.40;17.33;;;;;;;;;;5026871;28;20119;-59
2022/01/25 00:34:03;;;;;;;23.77;19.10;;;;;;;;;;5029715;28;20111;-59
2022/01/25 00:36:30;;;;;;;24.08;19.60;;;;;;;;;;5028284;28;20040;-60
2022/01/25 00:38:56;;;;;;;23.55;18.25;;;;;;;;;;5029724;28;20037;-60
2022/01/25 00:41:22;;;;;;;23.35;18.40;;;;;;;;;;5030607;28;20529;-60
2022/01/25 00:43:48;;;;;;;25.20;18.77;;;;;;;;;;5032036;28;20018;-59
2022/01/25 00:46:15;;;;;;;22.13;18.77;;;;;;;;;;5028518;28;20021;-60
2022/01/25 00:48:44;;;;;;;22.83;18.45;;;;;;;;;;5032231;28;20026;-59
2022/01/25 00:54:01;;;;;;;25.50;18.50;;;;;;;;;;5026188;28;20040;-59
2022/01/25 00:56:31;;;;;;;22.10;18.73;;;;;;;;;;5024597;28;20137;-59
2022/01/25 00:58:59;;;;;;;24.60;19.23;;;;;;;;;;5023488;28;20071;-59
2022/01/25 01:01:25;;;;;;;25.05;18.67;;;;;;;;;;5023430;28;20025;-59
2022/01/25 01:03:51;;;;;;;23.02;18.67;;;;;;;;;;5023999;28;20029;-59
2022/01/25 01:06:17;;;;;;;24.67;18.77;;;;;;;;;;5028180;28;20025;-60
2022/01/25 01:08:44;;;;;;;25.25;19.73;;;;;;;;;;5027170;28;20388;-60
2022/01/25 01:11:15;;;;;;;24.98;18.60;;;;;;;;;;5027041;28;20040;-60
2022/01/25 01:16:38;;;;;;;27.70;18.85;;;;;;;;;;5028307;28;20021;-59
2022/01/25 01:30:06;;;;;;;22.40;18.67;;;;;;;;;;5027517;28;20432;-59
2022/01/25 01:33:03;;;;;;;24.27;18.52;;;;;;;;;;5022795;28;20736;-59
2022/01/25 01:35:36;;;;;;;26.80;19.38;;;;;;;;;;5024846;28;20037;-58
2022/01/25 01:38:44;;;;;;;25.88;20.05;;;;;;;;;;5024544;28;20030;-60
2022/01/25 01:41:34;;;;;;;25.27;19.90;;;;;;;;;;5026800;28;20110;-61
2022/01/25 01:44:03;;;;;;;29.60;21.15;;;;;;;;;;5027312;28;20032;-60
2022/01/25 01:46:45;;;;;;;29.85;23.05;;;;;;;;;;5023720;28;20083;-59
2022/01/25 01:49:11;;;;;;;29.77;22.60;;;;;;;;;;5024464;28;20021;-59
2022/01/25 01:51:42;;;;;;;33.80;23.23;;;;;;;;;;5024718;28;20032;-59
2022/01/25 01:54:10;;;;;;;28.23;22.83;;;;;;;;;;5026199;28;20025;-59
2022/01/25 01:56:36;;;;;;;34.70;23.92;;;;;;;;;;5021425;28;20489;-60
2022/01/25 01:59:06;;;;;;;33.67;23.20;;;;;;;;;;5028171;28;20489;-60
2022/01/25 02:01:32;;;;;;;32.67;23.70;;;;;;;;;;5023327;28;20029;-60
2022/01/25 02:03:59;;;;;;;32.72;24.63;;;;;;;;;;5023623;28;20025;-58
2022/01/25 02:06:25;;;;;;;35.67;25.17;;;;;;;;;;5025458;28;20104;-59
2022/01/25 02:08:51;;;;;;;40.22;26.67;;;;;;;;;;5022794;28;20049;-59
2022/01/25 02:11:17;;;;;;;38.38;25.88;;;;;;;;;;5023018;28;20477;-59
2022/01/25 02:13:43;;;;;;;35.38;26.05;;;;;;;;;;5022769;28;20029;-59
2022/01/25 02:16:20;;;;;;;37.38;26.98;;;;;;;;;;5024551;28;20060;-60
2022/01/25 02:24:36;;;;;;;36.58;26.83;;;;;;;;;;5034184;28;20277;-60
2022/01/25 02:27:03;;;;;;;38.90;27.08;;;;;;;;;;5028729;28;20052;-59
2022/01/25 02:29:29;;;;;;;37.75;26.65;;;;;;;;;;5022600;28;20818;-59
2022/01/25 02:31:56;;;;;;;37.83;26.48;;;;;;;;;;5025317;28;20120;-60
2022/01/25 02:34:22;;;;;;;37.20;26.55;;;;;;;;;;5027910;28;20112;-59
2022/01/25 02:36:55;;;;;;;40.92;27.60;;;;;;;;;;5025998;28;20687;-60
2022/01/25 02:39:21;;;;;;;38.72;27.40;;;;;;;;;;5026613;28;20555;-59
2022/01/25 02:41:47;;;;;;;41.50;28.90;;;;;;;;;;5022575;28;20021;-59
2022/01/25 02:44:21;;;;;;;40.58;28.15;;;;;;;;;;5024119;28;20499;-59
2022/01/25 02:49:16;;;;;;;42.83;30.60;;;;;;;;;;5027057;28;20229;-59
2022/01/25 02:51:46;;;;;;;44.15;30.88;;;;;;;;;;5026427;28;20022;-59
2022/01/25 02:54:13;;;;;;;40.47;30.27;;;;;;;;;;5031462;28;20116;-60
2022/01/25 02:56:41;;;;;;;45.63;31.05;;;;;;;;;;5030270;28;20392;-59
2022/01/25 02:59:07;;;;;;;41.65;30.17;;;;;;;;;;5023877;28;20400;-59
2022/01/25 03:01:35;;;;;;;40.40;29.20;;;;;;;;;;5024298;28;20469;-61
2022/01/25 03:04:01;;;;;;;44.95;30.88;;;;;;;;;;5025921;28;20048;-60
2022/01/25 03:06:27;;;;;;;45.92;31.45;;;;;;;;;;5027246;28;20469;-58
2022/01/25 03:08:53;;;;;;;45.28;31.88;;;;;;;;;;5022517;28;20045;-60
2022/01/25 03:11:21;;;;;;;48.63;31.95;;;;;;;;;;5027721;28;20049;-60
2022/01/25 03:13:59;;;;;;;45.83;30.92;;;;;;;;;;5025366;28;20014;-60
2022/01/25 03:19:02;;;;;;;47.40;31.65;;;;;;;;;;5028636;28;20061;-59
2022/01/25 03:23:55;;;;;;;45.38;32.03;;;;;;;;;;5029535;28;21456;-59
2022/01/25 03:26:21;;;;;;;48.95;31.83;;;;;;;;;;5024869;28;20125;-59
2022/01/25 03:28:47;;;;;;;43.95;29.85;;;;;;;;;;5028914;28;20392;-58
2022/01/25 03:31:13;;;;;;;41.47;28.92;;;;;;;;;;5026845;28;20046;-58
2022/01/25 03:33:40;;;;;;;41.80;29.20;;;;;;;;;;5028801;28;20484;-60
2022/01/25 03:36:07;;;;;;;43.33;29.02;;;;;;;;;;5030115;28;20116;-59
2022/01/25 03:38:34;;;;;;;40.53;28.88;;;;;;;;;;5028128;28;20028;-61
2022/01/25 03:41:00;;;;;;;42.85;29.92;;;;;;;;;;5029890;28;21043;-59
2022/01/25 03:43:25;;;;;;;44.00;29.55;;;;;;;;;;5033509;28;20630;-59
2022/01/25 03:46:02;;;;;;;45.50;31.20;;;;;;;;;;5028088;28;20017;-59
2022/01/25 03:50:56;;;;;;;42.85;28.88;;;;;;;;;;5028560;28;20675;-59
2022/01/25 03:53:22;;;;;;;40.80;29.10;;;;;;;;;;5027799;28;20040;-60
2022/01/25 03:55:48;;;;;;;45.58;30.48;;;;;;;;;;5025407;28;20372;-59
2022/01/25 03:58:15;;;;;;;44.83;29.35;;;;;;;;;;5022700;28;20481;-60
2022/01/25 04:00:41;;;;;;;40.35;28.30;;;;;;;;;;5025829;28;21208;-59
2022/01/25 04:03:19;;;;;;;41.28;29.02;;;;;;;;;;5024248;28;20041;-59
2022/01/25 04:08:11;;;;;;;41.17;28.60;;;;;;;;;;5029060;28;20207;-59
2022/01/25 04:10:37;;;;;;;43.83;29.60;;;;;;;;;;5028845;28;20021;-59
2022/01/25 04:13:04;;;;;;;42.97;29.00;;;;;;;;;;5025300;28;20631;-59
2022/01/25 04:15:30;;;;;;;45.42;30.48;;;;;;;;;;5028489;28;20025;-60
2022/01/25 04:20:53;;;;;;;46.50;29.67;;;;;;;;;;5025902;28;20044;-60
2022/01/25 04:26:04;;;;;;;44.45;29.48;;;;;;;;;;5029045;28;20087;-60
2022/01/25 04:28:30;;;;;;;42.58;28.13;;;;;;;;;;5025585;28;20108;-59
2022/01/25 04:30:56;;;;;;;42.67;28.58;;;;;;;;;;5025645;28;20033;-59
2022/01/25 04:33:28;;;;;;;42.58;29.27;;;;;;;;;;5026136;28;20100;-59
2022/01/25 04:49:36;;;;;;;45.67;29.45;;;;;;;;;;5028006;28;20035;-60
2022/01/25 04:52:09;;;;;;;43.88;30.67;;;;;;;;;;5027056;28;20110;-59
2022/01/25 04:54:44;;;;;;;41.88;30.10;;;;;;;;;;5025920;28;20032;-60
2022/01/25 04:57:32;;;;;;;40.72;28.80;;;;;;;;;;5026472;28;20029;-59
2022/01/25 05:00:12;;;;;;;43.33;30.38;;;;;;;;;;5027791;28;20527;-58
2022/01/25 05:02:50;;;;;;;43.45;30.65;;;;;;;;;;5028281;28;20032;-60
2022/01/25 05:06:05;;;;;;;43.75;30.98;;;;;;;;;;5027070;28;20034;-59
2022/01/25 05:08:18;;;;;;;45.63;31.55;;;;;;;;;;5025926;28;20092;-59
2022/01/25 05:10:58;;;;;;;45.92;30.60;;;;;;;;;;5026459;28;20171;-60
2022/01/25 05:18:37;;;;;;;44.33;30.42;;;;;;;;;;5027917;28;20420;-58
2022/01/25 05:23:48;;;;;;;44.25;29.30;;;;;;;;;;5025928;28;20259;-58
2022/01/25 05:26:14;;;;;;;48.13;31.25;;;;;;;;;;5026332;28;20116;-59
2022/01/25 05:28:40;;;;;;;46.58;30.48;;;;;;;;;;5027904;28;20211;-59
2022/01/25 05:31:06;;;;;;;44.42;29.98;;;;;;;;;;5025144;28;20281;-59
2022/01/25 05:33:32;;;;;;;42.63;30.38;;;;;;;;;;5028964;28;20051;-60
2022/01/25 05:35:58;;;;;;;46.78;32.38;;;;;;;;;;5024638;28;20048;-59
2022/01/25 05:38:24;;;;;;;44.65;31.00;;;;;;;;;;5024562;28;20036;-60
2022/01/25 05:41:00;;;;;;;48.60;32.13;;;;;;;;;;5025503;28;20021;-60
2022/01/25 05:46:11;;;;;;;46.75;31.35;;;;;;;;;;5025053;28;20108;-59
2022/01/25 05:48:37;;;;;;;48.25;31.17;;;;;;;;;;5022477;28;20048;-60
2022/01/25 05:51:04;;;;;;;48.08;32.35;;;;;;;;;;5022711;28;20709;-59
2022/01/25 05:53:31;;;;;;;44.92;30.88;;;;;;;;;;5025078;28;20030;-59
2022/01/25 05:55:57;;;;;;;47.70;32.50;;;;;;;;;;5024180;28;20229;-59
2022/01/25 05:58:23;;;;;;;47.33;31.70;;;;;;;;;;5026665;28;20040;-59
2022/01/25 06:00:49;;;;;;;47.50;31.73;;;;;;;;;;5020376;28;20037;-60
2022/01/25 06:03:15;;;;;;;50.33;32.55;;;;;;;;;;5026307;28;20033;-59
2022/01/25 06:05:41;;;;;;;49.47;32.88;;;;;;;;;;5026736;28;20025;-60
2022/01/25 06:08:07;;;;;;;48.47;30.10;;;;;;;;;;5023499;28;20026;-60
2022/01/25 06:10:33;;;;;;;48.20;31.83;;;;;;;;;;5029888;28;20050;-59
2022/01/25 06:12:59;;;;;;;49.67;32.15;;;;;;;;;;5022438;28;20026;-60
2022/01/25 06:15:25;;;;;;;45.10;30.58;;;;;;;;;;5025655;28;20115;-60
2022/01/25 06:17:51;;;;;;;47.33;31.13;;;;;;;;;;5022557;28;20104;-59
2022/01/25 06:20:17;;;;;;;48.65;32.38;;;;;;;;;;5024264;28;20104;-60
2022/01/25 06:22:44;;;;;;;48.92;32.47;;;;;;;;;;5025878;28;20026;-60
2022/01/25 06:25:10;;;;;;;48.22;31.48;;;;;;;;;;5029975;28;20103;-60
2022/01/25 06:27:40;;;;;;;53.13;32.55;;;;;;;;;;5030379;28;20151;-59
2022/01/25 06:30:07;;;;;;;46.92;30.70;;;;;;;;;;5032456;28;20033;-59
2022/01/25 06:32:34;;;;;;;48.40;31.48;;;;;;;;;;5027667;28;20028;-61
2022/01/25 06:35:00;;;;;;;44.47;31.35;;;;;;;;;;5028440;28;20049;-60
2022/01/25 06:37:26;;;;;;;46.92;31.35;;;;;;;;;;5029475;28;20025;-58
2022/01/25 06:39:52;;;;;;;42.85;29.35;;;;;;;;;;5029184;28;20123;-60
2022/01/25 06:42:18;;;;;;;42.85;28.55;;;;;;;;;;5029437;28;20075;-59
2022/01/25 06:44:44;;;;;;;39.30;27.33;;;;;;;;;;5025418;28;20349;-59
2022/01/25 06:47:10;;;;;;;34.67;23.90;;;;;;;;;;5029548;28;20036;-60
2022/01/25 06:49:36;;;;;;;38.10;25.70;;;;;;;;;;5025592;28;20040;-59
2022/01/25 06:52:02;;;;;;;35.13;24.35;;;;;;;;;;5029218;28;20116;-60
2022/01/25 06:54:28;;;;;;;36.53;25.63;;;;;;;;;;5027037;28;20029;-59
2022/01/25 06:56:54;;;;;;;36.70;25.42;;;;;;;;;;5025811;28;20029;-59
2022/01/25 06:59:20;;;;;;;39.80;25.27;;;;;;;;;;5027986;28;20041;-59
2022/01/25 07:01:46;;;;;;;44.70;27.00;;;;;;;;;;5027347;28;20448;-60
2022/01/25 07:04:12;;;;;;;45.35;28.55;;;;;;;;;;5028089;28;20098;-61
2022/01/25 07:06:38;;;;;;;44.22;27.40;;;;;;;;;;5028538;28;20021;-61
2022/01/25 07:09:04;;;;;;;47.97;28.63;;;;;;;;;;5031509;28;20029;-61
2022/01/25 07:11:30;;;;;;;42.47;27.33;;;;;;;;;;5029066;28;20464;-60
2022/01/25 07:13:57;;;;;;;42.58;27.23;;;;;;;;;;5031704;28;20029;-61
2022/01/25 07:16:24;;;;;;;35.80;25.65;;;;;;;;;;5028871;28;20651;-60
2022/01/25 07:18:50;;;;;;;41.70;28.65;;;;;;;;;;5029155;28;20026;-60
2022/01/25 07:21:16;;;;;;;43.55;30.20;;;;;;;;;;5032881;28;20954;-61
2022/01/25 07:23:42;;;;;;;43.92;28.10;;;;;;;;;;5028917;28;20374;-61
2022/01/25 07:26:08;;;;;;;43.17;28.35;;;;;;;;;;5027597;28;20691;-60
2022/01/25 07:28:36;;;;;;;41.75;28.15;;;;;;;;;;5027893;28;20140;-61
2022/01/25 07:31:02;;;;;;;41.22;28.13;;;;;;;;;;5029292;28;20017;-61
2022/01/25 07:33:28;;;;;;;46.67;27.60;;;;;;;;;;5028535;28;20030;-61
2022/01/25 07:35:54;;;;;;;47.75;32.17;;;;;;;;;;5030509;28;20029;-60
2022/01/25 07:38:20;;;;;;;50.10;32.28;;;;;;;;;;5030474;28;20482;-60
2022/01/25 07:40:46;;;;;;;46.60;27.98;;;;;;;;;;5029310;28;20025;-60
2022/01/25 07:43:12;;;;;;;43.22;27.00;;;;;;;;;;5033071;28;20027;-60
2022/01/25 07:45:38;;;;;;;40.83;27.45;;;;;;;;;;5031918;28;20013;-60
2022/01/25 07:48:06;;;;;;;37.38;25.63;;;;;;;;;;5029486;28;20441;-60
2022/01/25 07:50:32;;;;;;;39.88;26.33;;;;;;;;;;5027902;28;20025;-60
2022/01/25 07:52:58;;;;;;;40.63;26.55;;;;;;;;;;5030472;28;20679;-61
2022/01/25 07:55:24;;;;;;;45.53;28.63;;;;;;;;;;5030587;28;20112;-60
2022/01/25 07:57:50;;;;;;;41.08;27.48;;;;;;;;;;5028650;28;20033;-60
2022/01/25 08:00:16;;;;;;;39.40;26.95;;;;;;;;;;5027895;28;20036;-60
2022/01/25 08:02:44;;;;;;;42.22;27.50;;;;;;;;;;5032499;28;20580;-60
2022/01/25 08:05:12;;;;;;;42.17;27.20;;;;;;;;;;5031814;28;20138;-61
2022/01/25 08:07:38;;;;;;;41.92;28.30;;;;;;;;;;5031261;28;20033;-61
2022/01/25 08:10:04;;;;;;;40.17;28.17;;;;;;;;;;5030476;28;20036;-60
2022/01/25 08:12:30;;;;;;;35.53;25.45;;;;;;;;;;5028933;28;20084;-60
2022/01/25 08:14:58;;;;;;;43.30;28.70;;;;;;;;;;5028456;28;20056;-61
2022/01/25 08:17:24;;;;;;;42.58;27.85;;;;;;;;;;5030184;28;20033;-60
2022/01/25 08:19:50;;;;;;;42.17;29.23;;;;;;;;;;5031117;28;20036;-60
2022/01/25 08:22:18;;;;;;;40.55;28.38;;;;;;;;;;5028432;28;20035;-60
2022/01/25 08:24:44;;;;;;;43.97;28.83;;;;;;;;;;5029976;28;20026;-61
2022/01/25 08:27:11;;;;;;;44.08;28.95;;;;;;;;;;5030617;28;20057;-61
2022/01/25 08:29:37;;;;;;;42.15;29.17;;;;;;;;;;5030112;28;20526;-60
2022/01/25 08:32:03;;;;;;;42.20;28.02;;;;;;;;;;5024589;28;20121;-60
2022/01/25 08:34:29;;;;;;;41.40;28.65;;;;;;;;;;5031509;28;20101;-60
2022/01/25 08:36:55;;;;;;;45.55;30.13;;;;;;;;;;5029068;28;20129;-60
2022/01/25 08:39:23;;;;;;;41.15;28.42;;;;;;;;;;5028355;28;20036;-60
2022/01/25 08:41:50;;;;;;;44.38;28.48;;;;;;;;;;5028159;28;20140;-60
2022/01/25 08:44:15;;;;;;;43.45;28.55;;;;;;;;;;5028947;28;20034;-59
2022/01/25 08:46:42;;;;;;;47.35;29.67;;;;;;;;;;5026782;28;20034;-60
2022/01/25 08:49:08;;;;;;;49.25;29.92;;;;;;;;;;5026867;28;20026;-60
2022/01/25 08:51:34;;;;;;;45.20;30.52;;;;;;;;;;5028756;28;20039;-61
2022/01/25 08:54:00;;;;;;;50.60;31.35;;;;;;;;;;5025919;28;20040;-60
2022/01/25 08:56:26;;;;;;;48.78;29.10;;;;;;;;;;5030122;28;20630;-60
2022/01/25 08:58:52;;;;;;;47.80;30.92;;;;;;;;;;5024485;28;20037;-61
2022/01/25 09:01:18;;;;;;;48.28;29.80;;;;;;;;;;5026989;28;20033;-61
2022/01/25 09:03:44;;;;;;;52.38;29.88;;;;;;;;;;5030869;28;20575;-60
2022/01/25 09:06:10;;;;;;;46.15;29.60;;;;;;;;;;5030136;28;20084;-60
2022/01/25 09:08:36;;;;;;;43.42;28.65;;;;;;;;;;5025354;28;20018;-60
2022/01/25 09:11:04;;;;;;;41.88;27.58;;;;;;;;;;5028075;28;20029;-60
2022/01/25 09:13:31;;;;;;;46.95;28.45;;;;;;;;;;5030922;28;20034;-61
2022/01/25 09:15:57;;;;;;;45.85;29.00;;;;;;;;;;5026526;28;20029;-60
2022/01/25 09:18:23;;;;;;;45.33;28.95;;;;;;;;;;5028045;28;20929;-60
2022/01/25 09:20:49;;;;;;;49.88;30.35;;;;;;;;;;5023424;28;20044;-60
2022/01/25 09:23:18;;;;;;;49.50;30.33;;;;;;;;;;5027484;28;20036;-60
2022/01/25 09:25:44;;;;;;;53.97;31.02;;;;;;;;;;5027895;28;20030;-60
2022/01/25 09:28:12;;;;;;;50.65;29.92;;;;;;;;;;5028898;28;20021;-60
2022/01/25 09:30:38;;;;;;;51.10;30.63;;;;;;;;;;5023585;28;20029;-60
2022/01/25 09:33:04;;;;;;;53.20;31.55;;;;;;;;;;5023500;28;20094;-61
2022/01/25 09:35:31;;;;;;;54.42;32.78;;;;;;;;;;5025774;28;20021;-61
2022/01/25 09:37:56;;;;;;;55.35;32.45;;;;;;;;;;5025800;28;20109;-60
2022/01/25 09:40:23;;;;;;;52.05;30.55;;;;;;;;;;5028420;28;20141;-60
2022/01/25 09:42:55;;;;;;;53.20;31.42;;;;;;;;;;5025045;28;20029;-60
2022/01/25 09:45:21;;;;;;;56.90;33.47;;;;;;;;;;5025593;28;20040;-60
2022/01/25 09:47:48;;;;;;;57.85;33.15;;;;;;;;;;5027219;28;20037;-60
2022/01/25 09:50:14;;;;;;;52.78;32.35;;;;;;;;;;5027919;28;20041;-60
2022/01/25 09:52:43;;;;;;;58.15;33.60;;;;;;;;;;5030121;28;20145;-60
2022/01/25 09:55:11;;;;;;;55.10;32.47;;;;;;;;;;5030946;28;20048;-60
2022/01/25 09:57:37;;;;;;;54.17;32.35;;;;;;;;;;5027466;28;20058;-61
2022/01/25 10:00:04;;;;;;;58.03;34.33;;;;;;;;;;5024809;28;20843;-61
2022/01/25 10:02:42;;;;;;;59.92;34.08;;;;;;;;;;5027837;28;20693;-60
2022/01/25 10:05:33;;;;;;;59.22;33.22;;;;;;;;;;5028677;28;20025;-60
2022/01/25 10:08:05;;;;;;;59.03;34.17;;;;;;;;;;5029001;28;20107;-61
2022/01/25 10:10:32;;;;;;;56.42;32.40;;;;;;;;;;5026693;28;20054;-61
2022/01/25 10:13:07;;;;;;;55.92;32.63;;;;;;;;;;5029513;28;20058;-60
2022/01/25 10:15:34;;;;;;;57.45;33.38;;;;;;;;;;5024374;28;20021;-61
2022/01/25 10:18:00;;;;;;;55.10;32.28;;;;;;;;;;5025508;28;20084;-61
2022/01/25 10:20:30;;;;;;;63.05;33.70;;;;;;;;;;5028829;28;20041;-60
2022/01/25 10:22:59;;;;;;;62.28;34.55;;;;;;;;;;5024055;28;20131;-60
2022/01/25 10:25:39;;;;;;;66.00;35.92;;;;;;;;;;5027650;28;20025;-60
2022/01/25 10:28:12;;;;;;;64.75;34.40;;;;;;;;;;5026834;28;20460;-60
2022/01/25 10:30:46;;;;;;;61.55;33.17;;;;;;;;;;5027107;28;20025;-60
2022/01/25 10:33:21;;;;;;;64.05;35.13;;;;;;;;;;5027053;28;20025;-60
2022/01/25 10:35:47;;;;;;;64.78;33.97;;;;;;;;;;5025361;28;20038;-59
2022/01/25 10:38:24;;;;;;;67.15;34.13;;;;;;;;;;5028880;28;20079;-60
2022/01/25 10:40:54;;;;;;;66.78;34.35;;;;;;;;;;5023563;28;20591;-60
2022/01/25 10:43:21;;;;;;;61.42;34.05;;;;;;;;;;5027079;28;20653;-60
2022/01/25 10:46:03;;;;;;;59.53;34.13;;;;;;;;;;5027261;28;20041;-60
2022/01/25 10:48:29;;;;;;;60.00;33.90;;;;;;;;;;5028792;28;20702;-60
2022/01/25 10:51:02;;;;;;;59.42;34.03;;;;;;;;;;5026763;28;20120;-60
2022/01/25 10:53:28;;;;;;;60.22;32.38;;;;;;;;;;5029158;28;20629;-60
2022/01/25 10:55:54;;;;;;;60.15;32.45;;;;;;;;;;5023323;28;20036;-60
2022/01/25 10:58:22;;;;;;;59.22;32.45;;;;;;;;;;5030831;28;20036;-60
2022/01/25 11:00:49;;;;;;;65.47;35.10;;;;;;;;;;5027876;28;20186;-60
2022/01/25 11:03:35;;;;;;;68.47;35.30;;;;;;;;;;5028693;28;20050;-60
2022/01/25 11:06:13;;;;;;;66.93;34.38;;;;;;;;;;5017076;28;20116;-61
2022/01/25 11:08:39;;;;;;;67.78;35.97;;;;;;;;;;5026163;28;20030;-60
2022/01/25 11:11:09;;;;;;;69.10;35.20;;;;;;;;;;5030776;28;20141;-60
2022/01/25 11:13:37;;;;;;;64.30;35.25;;;;;;;;;;5030514;28;20033;-60
2022/01/25 11:16:05;;;;;;;67.65;35.83;;;;;;;;;;5031386;28;20421;-61
2022/01/25 11:18:31;;;;;;;66.72;34.95;;;;;;;;;;5029254;28;20030;-60
2022/01/25 11:20:59;;;;;;;70.00;34.75;;;;;;;;;;5032153;28;20112;-60
2022/01/25 11:23:25;;;;;;;75.28;35.83;;;;;;;;;;5027229;28;20056;-61
2022/01/25 11:25:52;;;;;;;69.60;36.42;;;;;;;;;;5029528;28;20817;-60
2022/01/25 11:28:18;;;;;;;66.43;35.17;;;;;;;;;;5031806;28;20045;-60
2022/01/25 11:30:45;;;;;;;74.55;38.08;;;;;;;;;;5028593;28;20108;-60
2022/01/25 11:33:12;;;;;;;65.10;34.50;;;;;;;;;;5028951;28;20032;-60
2022/01/25 11:35:38;;;;;;;66.72;35.55;;;;;;;;;;5029658;28;20033;-60
2022/01/25 11:38:05;;;;;;;72.70;35.47;;;;;;;;;;5030484;28;20048;-60
2022/01/25 11:40:37;;;;;;;69.28;35.03;;;;;;;;;;5027154;28;20056;-60
2022/01/25 11:43:06;;;;;;;75.63;36.58;;;;;;;;;;5031928;28;20488;-60
2022/01/25 11:45:37;;;;;;;77.47;37.97;;;;;;;;;;5030616;28;20035;-60
2022/01/25 11:48:03;;;;;;;94.07;39.38;;;;;;;;;;5030206;28;20350;-60
2022/01/25 11:50:34;;;;;;;78.05;39.53;;;;;;;;;;5026927;28;20036;-60
2022/01/25 11:53:05;;;;;;;70.95;35.92;;;;;;;;;;5030973;28;20037;-60
2022/01/25 11:55:34;;;;;;;78.15;37.78;;;;;;;;;;5029750;28;20412;-61
2022/01/25 11:58:08;;;;;;;69.55;35.83;;;;;;;;;;5030888;28;20029;-60
2022/01/25 12:00:41;;;;;;;74.20;36.60;;;;;;;;;;5026565;28;20057;-60
2022/01/25 12:03:21;;;;;;;70.68;35.55;;;;;;;;;;5031515;28;20030;-61
2022/01/25 12:06:03;;;;;;;79.50;36.83;;;;;;;;;;5031578;28;20521;-60
2022/01/25 12:08:38;;;;;;;64.47;34.42;;;;;;;;;;5032317;28;20021;-61
2022/01/25 12:11:23;;;;;;;69.03;36.00;;;;;;;;;;5027730;28;20108;-60
2022/01/25 12:14:09;;;;;;;68.03;34.47;;;;;;;;;;5026366;28;20041;-60
2022/01/25 12:16:43;;;;;;;68.05;34.45;;;;;;;;;;5028585;28;20037;-60
2022/01/25 12:19:09;;;;;;;68.78;35.97;;;;;;;;;;5026409;28;20025;-60
2022/01/25 12:21:52;;;;;;;68.43;35.65;;;;;;;;;;5025212;28;20037;-60
2022/01/25 12:24:19;;;;;;;;;;;;;;;;;;5025457;28;20071;-60
2022/01/25 12:27:10;;;;;;;65.07;33.67;;;;;;;;;;5028095;28;20016;-60
2022/01/25 12:29:43;;;;;;;63.67;33.25;;;;;;;;;;5029053;28;20025;-60
2022/01/25 12:32:20;;;;;;;62.60;33.25;;;;;;;;;;5028673;28;20032;-60
2022/01/25 12:34:59;;;;;;;61.85;31.77;;;;;;;;;;5027298;28;20082;-60
2022/01/25 12:37:48;;;;;;;65.05;33.35;;;;;;;;;;5030677;28;20273;-61
2022/01/25 12:40:28;;;;;;;134.25;72.88;;;;;;;;;;5027962;28;20337;-60
2022/01/25 12:42:54;;;;;;;71.20;37.05;;;;;;;;;;5030365;28;20056;-60
2022/01/25 12:45:21;;;;;;;70.43;36.97;;;;;;;;;;5027506;28;20060;-60
2022/01/25 12:48:14;;;;;;;70.97;36.67;;;;;;;;;;5027974;28;20091;-60
2022/01/25 12:50:41;;;;;;;76.78;36.97;;;;;;;;;;5027623;28;20514;-60
2022/01/25 12:53:09;;;;;;;72.30;38.03;;;;;;;;;;5031269;28;20120;-60
2022/01/25 12:55:37;;;;;;;76.65;39.08;;;;;;;;;;5027506;28;20071;-60
2022/01/25 12:58:04;;;;;;;70.20;34.65;;;;;;;;;;5027449;28;20460;-60
2022/01/25 13:00:32;;;;;;;69.35;35.40;;;;;;;;;;5029196;28;20110;-60
2022/01/25 13:03:11;;;;;;;73.35;36.65;;;;;;;;;;5027000;28;20029;-60
2022/01/25 13:05:41;;;;;;;69.35;36.35;;;;;;;;;;5023829;28;20022;-60
2022/01/25 13:08:14;;;;;;;68.85;36.55;;;;;;;;;;5028702;28;20434;-60
2022/01/25 13:10:40;;;;;;;65.95;34.08;;;;;;;;;;5029682;28;20559;-61
2022/01/25 13:13:23;;;;;;;71.95;36.30;;;;;;;;;;5026101;28;20076;-61
2022/01/25 13:15:56;;;;;;;67.05;35.67;;;;;;;;;;5027505;28;20377;-60
2022/01/25 13:18:23;;;;;;;64.78;34.67;;;;;;;;;;5028806;28;20238;-60
2022/01/25 13:20:58;;;;;;;61.40;33.40;;;;;;;;;;5027221;28;20033;-60
2022/01/25 13:23:25;;;;;;;70.82;34.90;;;;;;;;;;5028313;28;20552;-61
2022/01/25 13:26:12;;;;;;;67.68;36.63;;;;;;;;;;5030535;28;20049;-61
2022/01/25 13:28:54;;;;;;;63.10;34.35;;;;;;;;;;5027646;28;20025;-60
2022/01/25 13:31:21;;;;;;;64.18;35.80;;;;;;;;;;5028402;28;20094;-61
2022/01/25 13:33:47;;;;;;;65.40;35.95;;;;;;;;;;5029144;28;20488;-60
2022/01/25 13:36:14;;;;;;;61.80;34.17;;;;;;;;;;5028162;28;20040;-60
2022/01/25 13:38:41;;;;;;;65.75;34.25;;;;;;;;;;5030052;28;20104;-60
2022/01/25 13:46:24;;;;;;;69.22;36.80;;;;;;;;;;5027863;28;20076;-61
2022/01/25 13:48:53;;;;;;;63.55;33.38;;;;;;;;;;5027444;28;20215;-61
2022/01/25 13:51:20;;;;;;;66.93;35.47;;;;;;;;;;5024780;28;20021;-61
2022/01/25 13:53:59;;;;;;;66.78;34.42;;;;;;;;;;5029391;28;20068;-60
2022/01/25 13:56:27;;;;;;;68.75;34.35;;;;;;;;;;5029349;28;20048;-60
2022/01/25 13:58:53;;;;;;;57.30;31.55;;;;;;;;;;5026231;28;20029;-61
2022/01/25 14:01:20;;;;;;;62.97;34.55;;;;;;;;;;5027777;28;20036;-60
2022/01/25 14:03:57;;;;;;;65.20;34.75;;;;;;;;;;5029280;28;20855;-60
2022/01/25 14:06:39;;;;;;;67.07;35.50;;;;;;;;;;5025668;28;20041;-60
2022/01/25 14:09:08;;;;;;;63.80;33.80;;;;;;;;;;5027940;28;20022;-60
2022/01/25 14:11:54;;;;;;;64.68;33.42;;;;;;;;;;5030023;28;20107;-60
2022/01/25 14:22:50;;;;;;;66.45;35.40;;;;;;;;;;5028258;28;20090;-61
2022/01/25 14:25:32;;;;;;;63.13;32.40;;;;;;;;;;5027960;28;20567;-60
2022/01/25 14:28:03;;;;;;;49.17;24.58;;;;;;;;;;5028885;28;20492;-60
2022/01/25 14:30:37;;;;;;;65.43;34.92;;;;;;;;;;5029090;28;20083;-60
2022/01/25 14:33:10;;;;;;;68.18;35.35;;;;;;;;;;5025787;28;20127;-61
2022/01/25 14:35:40;;;;;;;62.42;34.10;;;;;;;;;;5026068;28;20068;-60
2022/01/25 14:38:06;;;;;;;58.83;32.90;;;;;;;;;;5029932;28;20192;-60
2022/01/25 14:40:32;;;;;;;65.00;32.42;;;;;;;;;;5028271;28;20135;-60
2022/01/25 14:42:58;;;;;;;57.03;32.95;;;;;;;;;;5026405;28;20033;-60
2022/01/25 14:45:24;;;;;;;60.42;31.88;;;;;;;;;;5032061;28;20030;-60
2022/01/25 14:47:53;;;;;;;56.15;31.08;;;;;;;;;;5029325;28;20395;-60
2022/01/25 14:50:21;;;;;;;60.17;32.40;;;;;;;;;;5030060;28;20035;-60
2022/01/25 14:53:07;;;;;;;59.33;33.65;;;;;;;;;;5032226;28;20079;-61
2022/01/25 14:55:34;;;;;;;62.70;32.38;;;;;;;;;;5031693;28;20481;-60
2022/01/25 14:59:22;;;;;;;60.13;33.85;;;;;;;;;;5027012;28;20032;-60
2022/01/25 15:00:57;;;;;;;59.90;33.05;;;;;;;;;;5029256;28;20118;-61
2022/01/25 15:03:24;;;;;;;45.05;23.30;;;;;;;;;;5031823;28;20037;-60
2022/01/25 15:05:51;;;;;;;61.88;33.83;;;;;;;;;;5031815;28;20647;-61
2022/01/25 15:08:19;;;;;;;66.82;33.97;;;;;;;;;;5030078;28;20122;-60
2022/01/25 15:10:46;;;;;;;59.42;33.40;;;;;;;;;;5030804;28;20068;-61
2022/01/25 15:13:22;;;;;;;62.92;33.72;;;;;;;;;;5030634;28;20024;-60
2022/01/25 15:15:55;;;;;;;61.55;33.30;;;;;;;;;;5032042;28;20025;-60
2022/01/25 15:18:22;;;;;;;59.17;32.75;;;;;;;;;;5027337;28;20162;-61
2022/01/25 15:20:48;;;;;;;63.65;33.15;;;;;;;;;;5029635;28;20041;-60
2022/01/25 15:23:14;;;;;;;61.38;33.70;;;;;;;;;;5030966;28;20052;-60
2022/01/25 15:25:40;;;;;;;60.75;33.30;;;;;;;;;;5030862;28;20025;-60
2022/01/25 15:28:08;;;;;;;62.38;31.75;;;;;;;;;;5025140;28;20052;-60
2022/01/25 15:30:34;;;;;;;61.42;33.47;;;;;;;;;;5009630;28;20272;-60
2022/01/25 15:33:00;;;;;;;58.97;32.22;;;;;;;;;;5030644;28;20030;-60
2022/01/25 15:35:27;;;;;;;58.35;31.42;;;;;;;;;;5031229;28;20041;-60
2022/01/25 15:37:56;;;;;;;58.88;31.60;;;;;;;;;;5029453;28;20435;-61
2022/01/25 15:40:22;;;;;;;58.15;32.58;;;;;;;;;;5027304;28;20841;-60
2022/01/25 15:42:50;;;;;;;60.90;32.03;;;;;;;;;;5027172;28;20041;-61
2022/01/25 15:45:29;;;;;;;59.83;32.63;;;;;;;;;;5030756;28;20782;-60
2022/01/25 15:47:55;;;;;;;63.45;31.95;;;;;;;;;;5028897;28;20032;-60
2022/01/25 15:50:23;;;;;;;56.15;31.20;;;;;;;;;;5032157;28;20049;-60
2022/01/25 15:52:49;;;;;;;60.72;32.70;;;;;;;;;;5028300;28;20076;-61
2022/01/25 15:55:15;;;;;;;67.03;33.40;;;;;;;;;;5030884;28;20043;-60
2022/01/25 15:57:41;;;;;;;66.20;33.63;;;;;;;;;;5031259;28;20347;-60
2022/01/25 16:00:08;;;;;;;59.70;32.45;;;;;;;;;;5030579;28;20095;-60
2022/01/25 16:02:34;;;;;;;61.92;33.10;;;;;;;;;;5029912;28;20115;-60
2022/01/25 16:05:00;;;;;;;61.72;32.95;;;;;;;;;;5030525;28;20037;-61
2022/01/25 16:07:26;;;;;;;63.83;32.88;;;;;;;;;;5032958;28;20029;-60